Terminal Aerodrome Forecast
Issued by NWS

Home | Current Version | Previous Version | Text Only | Print | Product List | Glossary On
Versions: 1 2 3 4 5 6 7 8 9 10 11 12 13 14 15 16 17 18 19 20 21 22 23 24 25 26 27 28 29 30 31 32 33 34 35 36 37
000
FTUS43 KLOT 231900 AAA
TAFORD
TAF AMD
KORD 231957Z 2320/2424 16010G18KT 6SM -SHRA BR OVC012
     FM232200 13012KT 4SM RA BR OVC008
     FM240200 15010KT 2SM RA BR OVC005
     FM240600 20008KT 1 1/2SM -RA BR OVC005
     FM241400 24015G22KT 3SM -RA BR SCT007 OVC015
     FM241700 25020G30KT 3SM -RASN SCT007 OVC012
     FM242000 27021G32KT 2SM -SN BKN007 OVC012=

USA.gov is the U.S. government's official web portal to all federal, state and local government web resources and services.